If you wish to contribute or participate in the discussions about articles you are invited to join SKYbrary as a registered user

 Actions

Chernivtsi International Airport

From SKYbrary Wiki

UKLN
Airport
ICAO: UKLN
Summary
Name Chernivtsi International Airport
Region Europe
Territory Ukraine UA.gif
Location Chernivtsi
Serving
Coordinates 48° 16' 0.68" N, 25° 58' 1.98" E
Runways
Designator Length Width Surface ROPS
15/33 2216 m7,270.341 ft
42 m137.795 ft
ASP /


METAR
Observation UKLN 211930Z 00000MPS 3600 -SHRA BKN///CB 09/08 Q1021 R33/290260 NOSIG
Station Chernovsty
Date/Time 21 April 2019 19:30:00
Wind direction
Wind speed kts
Lowest cloud amount n/a
Temperature 9°C
Dew point 8°C
Humidity 93%
QNH 1021 hPa
Weather condition n/a

Chernivtsi International Airport (IATA: CWC) is an airport in the city of Chernivtsi in western Ukraine.